Time;durP1;ratioP1;P1;durP2;ratioP2;P2;SDS_P1;SDS_P2;PMS_P1;PMS_P2;Temp;Humidity;BMP_temperature;BMP_pressure;BME280_temperature;BME280_humidity;BME280_pressure;Samples;Min_cycle;Max_cycle;Signal;HPM_P1;HPM_P2
2022/11/16 00:02:09;;;;;;;10.70;8.20;;;13.70;99.90;;;;;;4945637;28;20313;-68
2022/11/16 00:04:35;;;;;;;13.07;8.10;;;13.70;99.90;;;;;;4942169;28;20564;-66
2022/11/16 00:07:04;;;;;;;10.23;8.10;;;13.70;99.90;;;;;;4948547;28;20517;-67
2022/11/16 00:09:31;;;;;;;9.80;8.10;;;13.70;99.90;;;;;;4949480;28;20486;-67
2022/11/16 00:12:00;;;;;;;9.03;7.70;;;13.60;99.90;;;;;;4946380;28;20925;-67
2022/11/16 00:14:29;;;;;;;10.93;7.73;;;13.60;99.90;;;;;;4944548;28;20459;-67
2022/11/16 00:16:54;;;;;;;12.40;8.63;;;13.50;99.90;;;;;;4948680;28;20849;-67
2022/11/16 00:19:20;;;;;;;13.93;9.03;;;13.50;99.90;;;;;;4946325;28;20484;-67
2022/11/16 00:21:46;;;;;;;14.20;9.27;;;13.50;99.90;;;;;;4943528;28;20223;-67
2022/11/16 00:24:14;;;;;;;11.50;9.20;;;13.50;99.90;;;;;;4943147;28;20482;-67
2022/11/16 00:26:40;;;;;;;14.83;8.83;;;13.50;99.90;;;;;;4949172;28;20284;-67
2022/11/16 00:29:10;;;;;;;10.03;8.57;;;13.70;99.90;;;;;;4946673;28;20917;-67
2022/11/16 00:31:36;;;;;;;11.57;9.47;;;13.70;99.90;;;;;;4945953;28;20512;-67
2022/11/16 00:34:02;;;;;;;12.17;9.10;;;13.60;99.90;;;;;;4946424;28;20442;-67
2022/11/16 00:36:27;;;;;;;12.53;9.67;;;13.50;99.90;;;;;;4957887;28;20196;-66
2022/11/16 00:38:53;;;;;;;10.80;8.20;;;13.50;99.90;;;;;;4944476;28;20426;-69
2022/11/16 00:41:19;;;;;;;15.10;9.30;;;13.60;99.90;;;;;;4953117;28;20216;-68
2022/11/16 00:43:44;;;;;;;14.93;10.00;;;13.50;99.90;;;;;;4946048;28;20184;-68
2022/11/16 00:46:10;;;;;;;12.13;9.30;;;13.50;99.90;;;;;;4945215;28;20183;-68
2022/11/16 00:48:35;;;;;;;12.20;10.10;;;13.50;99.90;;;;;;4946112;28;20204;-68
2022/11/16 00:51:01;;;;;;;12.70;10.60;;;13.40;99.90;;;;;;4946846;28;20209;-68
2022/11/16 00:53:26;;;;;;;12.50;10.33;;;13.30;99.90;;;;;;4945692;28;20298;-68
2022/11/16 00:55:52;;;;;;;11.83;10.40;;;13.30;99.90;;;;;;4952785;28;20241;-68
2022/11/16 00:58:17;;;;;;;13.63;10.43;;;13.30;99.90;;;;;;4947621;28;20253;-69
2022/11/16 01:00:43;;;;;;;11.00;9.60;;;13.30;99.90;;;;;;4934395;28;20230;-68
2022/11/16 01:03:09;;;;;;;11.67;10.47;;;13.30;99.90;;;;;;4946756;28;20219;-68
2022/11/16 01:05:35;;;;;;;12.23;10.60;;;13.30;99.90;;;;;;4946503;28;20190;-68
2022/11/16 01:08:01;;;;;;;12.40;9.80;;;13.30;99.90;;;;;;4945584;28;20426;-68
2022/11/16 01:10:27;;;;;;;15.70;11.67;;;13.30;99.90;;;;;;4945689;28;20270;-68
2022/11/16 01:12:54;;;;;;;15.77;11.50;;;13.20;99.90;;;;;;4944571;28;20192;-68
2022/11/16 01:15:22;;;;;;;15.20;11.23;;;13.20;99.90;;;;;;4946950;28;20452;-68
2022/11/16 01:17:48;;;;;;;13.67;10.93;;;13.30;99.90;;;;;;4945673;28;20447;-68
2022/11/16 01:20:17;;;;;;;14.20;11.53;;;13.30;99.90;;;;;;4943902;28;20473;-68
2022/11/16 01:22:44;;;;;;;12.43;10.90;;;13.30;99.90;;;;;;4948894;28;20197;-67
2022/11/16 01:25:11;;;;;;;11.43;9.87;;;13.30;99.90;;;;;;4949168;28;20446;-67
2022/11/16 01:27:37;;;;;;;15.43;10.57;;;13.30;99.90;;;;;;4948349;28;20866;-68
2022/11/16 01:30:04;;;;;;;12.23;10.23;;;13.30;99.90;;;;;;4949779;28;20470;-67
2022/11/16 01:32:30;;;;;;;11.70;10.20;;;13.30;99.90;;;;;;4947416;28;20716;-68
2022/11/16 01:34:55;;;;;;;13.43;11.70;;;13.30;99.90;;;;;;4948026;28;20446;-67
2022/11/16 01:37:21;;;;;;;13.60;11.80;;;13.30;99.90;;;;;;4946045;28;20188;-67
2022/11/16 01:39:48;;;;;;;13.60;11.83;;;13.20;99.90;;;;;;4949009;28;20192;-67
2022/11/16 01:42:19;;;;;;;14.93;12.23;;;13.20;99.90;;;;;;4948257;28;20214;-67
2022/11/16 01:44:44;;;;;;;15.43;11.63;;;13.20;99.90;;;;;;4947369;28;20477;-67
2022/11/16 01:47:13;;;;;;;13.87;12.40;;;13.10;99.90;;;;;;4950829;28;20458;-67
2022/11/16 01:49:50;;;;;;;14.80;12.23;;;13.20;99.90;;;;;;4949411;28;20234;-68
2022/11/16 01:52:19;;;;;;;18.60;12.80;;;13.20;99.90;;;;;;4948168;28;21098;-67
2022/11/16 01:54:46;;;;;;;15.13;12.63;;;13.20;99.90;;;;;;4947003;28;20514;-67
2022/11/16 01:57:19;;;;;;;14.73;12.30;;;13.20;99.90;;;;;;4953181;28;20491;-67
2022/11/16 01:59:48;;;;;;;14.30;11.73;;;13.20;99.90;;;;;;4947954;28;20847;-68
2022/11/16 02:02:14;;;;;;;15.73;12.57;;;13.20;99.90;;;;;;4945812;28;20561;-67
2022/11/16 02:04:40;;;;;;;13.33;11.67;;;13.20;99.90;;;;;;4947953;28;20432;-67
2022/11/16 02:07:19;;;;;;;14.33;12.17;;;13.20;99.90;;;;;;4951270;28;20419;-67
2022/11/16 02:09:59;;;;;;;14.97;12.23;;;13.10;99.90;;;;;;4950886;28;20564;-67
2022/11/16 02:12:44;;;;;;;17.10;10.90;;;13.10;99.90;;;;;;4949066;28;20462;-67
2022/11/16 02:15:32;;;;;;;13.13;11.73;;;13.10;99.90;;;;;;4948343;28;20794;-67
2022/11/16 02:18:21;;;;;;;15.83;12.37;;;13.10;99.90;;;;;;4949462;28;20465;-68
2022/11/16 02:21:02;;;;;;;15.60;12.37;;;13.00;99.90;;;;;;4947741;28;20498;-68
2022/11/16 02:24:12;;;;;;;15.57;12.80;;;13.10;99.90;;;;;;4946864;28;20449;-67
2022/11/16 02:27:03;;;;;;;13.90;12.40;;;13.10;99.90;;;;;;4951502;28;20631;-67
2022/11/16 02:29:37;;;;;;;15.87;12.67;;;13.10;99.90;;;;;;4950694;28;20441;-67
2022/11/16 02:32:07;;;;;;;17.10;13.17;;;13.10;99.90;;;;;;4948429;28;20824;-68
2022/11/16 02:34:47;;;;;;;14.93;12.53;;;13.10;99.90;;;;;;4951701;28;20838;-67
2022/11/16 02:37:18;;;;;;;15.30;12.40;;;13.00;99.90;;;;;;4945082;28;20433;-67
2022/11/16 02:39:47;;;;;;;12.43;11.13;;;12.90;99.90;;;;;;4948628;28;20446;-67
2022/11/16 02:42:19;;;;;;;12.70;10.70;;;12.90;99.90;;;;;;4946224;28;20498;-68
2022/11/16 02:44:48;;;;;;;12.40;10.97;;;12.90;99.90;;;;;;4946015;28;20436;-67
2022/11/16 02:47:23;;;;;;;12.40;10.60;;;12.80;99.90;;;;;;4946560;28;20438;-67
2022/11/16 02:50:01;;;;;;;15.37;11.70;;;12.70;99.90;;;;;;4945715;28;20764;-67
2022/11/16 02:52:28;;;;;;;12.37;10.70;;;12.70;99.90;;;;;;4947935;28;20507;-67
2022/11/16 02:54:53;;;;;;;13.13;11.30;;;12.60;99.90;;;;;;4948725;28;20427;-66
2022/11/16 02:57:47;;;;;;;13.43;10.63;;;12.50;99.90;;;;;;4941569;28;20455;-68
2022/11/16 03:00:45;;;;;;;15.23;11.73;;;12.50;99.90;;;;;;4943290;28;20188;-67
2022/11/16 03:03:30;;;;;;;13.20;11.63;;;12.50;99.90;;;;;;4945767;28;20437;-67
2022/11/16 03:06:02;;;;;;;14.90;10.60;;;12.50;99.90;;;;;;4947457;28;20442;-67
2022/11/16 03:08:44;;;;;;;11.43;9.90;;;12.50;99.90;;;;;;4947889;28;20434;-67
2022/11/16 03:14:00;;;;;;;13.13;10.53;;;12.50;99.90;;;;;;4949629;28;20441;-68
2022/11/16 03:16:31;;;;;;;15.83;10.93;;;12.50;99.90;;;;;;4944756;28;20821;-69
2022/11/16 03:19:01;;;;;;;11.00;9.80;;;12.60;99.90;;;;;;4946889;28;20496;-68
2022/11/16 03:21:40;;;;;;;12.60;9.90;;;12.70;99.90;;;;;;4942751;28;20505;-68
2022/11/16 03:24:06;;;;;;;15.10;10.80;;;12.70;99.90;;;;;;4942749;28;21004;-67
2022/11/16 03:26:49;;;;;;;24.20;11.27;;;12.70;99.90;;;;;;4947516;28;20473;-67
2022/11/16 03:29:31;;;;;;;11.30;9.47;;;12.70;99.90;;;;;;4945090;28;20441;-67
2022/11/16 03:32:15;;;;;;;11.40;9.60;;;12.60;99.90;;;;;;4946983;28;20451;-67
2022/11/16 03:34:46;;;;;;;10.43;8.40;;;12.60;99.90;;;;;;4945982;28;20484;-67
2022/11/16 03:37:12;;;;;;;10.50;8.70;;;12.50;99.90;;;;;;4947264;28;20423;-67
2022/11/16 03:39:38;;;;;;;10.43;8.97;;;12.50;99.90;;;;;;4942717;28;20518;-66
2022/11/16 03:42:08;;;;;;;9.33;8.43;;;12.50;99.90;;;;;;4944994;28;20589;-67
2022/11/16 03:44:36;;;;;;;9.03;7.90;;;12.60;99.90;;;;;;4946875;28;20963;-66
2022/11/16 03:47:01;;;;;;;11.67;9.37;;;12.60;99.90;;;;;;4942766;28;20541;-67
2022/11/16 03:49:30;;;;;;;9.83;8.83;;;12.50;99.90;;;;;;4948561;28;20614;-68
2022/11/16 03:51:56;;;;;;;8.57;7.20;;;12.60;99.90;;;;;;4946317;28;20206;-68
2022/11/16 03:54:22;;;;;;;9.20;7.07;;;12.70;99.90;;;;;;4944638;28;20613;-67
2022/11/16 03:56:48;;;;;;;8.10;6.97;;;12.70;99.90;;;;;;4944965;28;20550;-68
2022/11/16 03:59:13;;;;;;;9.93;7.60;;;12.70;99.90;;;;;;4945898;28;20550;-68
2022/11/16 04:01:39;;;;;;;8.03;6.80;;;12.80;99.90;;;;;;4946185;28;20285;-68
2022/11/16 04:04:04;;;;;;;9.93;7.13;;;12.70;99.90;;;;;;4948602;28;20215;-68
2022/11/16 04:25:58;;;;;;;7.30;5.00;;;12.80;99.90;;;;;;4944721;28;20921;-68
2022/11/16 04:28:27;;;;;;;6.53;5.83;;;12.90;99.90;;;;;;4945861;28;20434;-68
2022/11/16 04:39:08;;;;;;;6.53;4.67;;;12.80;99.90;;;;;;4946016;28;20458;-69
2022/11/16 04:44:18;;;;;;;4.20;3.80;;;12.90;99.90;;;;;;4944937;28;20190;-68
2022/11/16 04:49:28;;;;;;;4.47;3.97;;;12.80;99.90;;;;;;4943206;28;20190;-68
2022/11/16 04:51:54;;;;;;;4.60;3.93;;;12.80;99.90;;;;;;4943142;28;20466;-68
2022/11/16 04:54:19;;;;;;;4.73;4.10;;;12.90;99.90;;;;;;4946068;28;20187;-68
2022/11/16 04:56:45;;;;;;;6.47;4.50;;;12.90;99.90;;;;;;4939671;28;20276;-68
2022/11/16 04:59:11;;;;;;;5.07;4.40;;;12.90;99.90;;;;;;4948982;28;20281;-68
2022/11/16 05:04:21;;;;;;;6.27;4.60;;;12.80;99.90;;;;;;4948630;28;20252;-68
2022/11/16 05:06:46;;;;;;;5.80;4.50;;;12.80;99.90;;;;;;4949548;28;20439;-68
2022/11/16 05:09:12;;;;;;;7.10;6.30;;;12.90;99.90;;;;;;4951314;28;20179;-68
2022/11/16 05:11:38;;;;;;;8.30;5.67;;;12.90;99.90;;;;;;4950398;28;20637;-68
2022/11/16 05:14:04;;;;;;;7.60;6.20;;;12.90;99.90;;;;;;4949313;28;20183;-67
2022/11/16 05:16:31;;;;;;;7.37;5.87;;;12.80;99.90;;;;;;4948058;28;20447;-67
2022/11/16 05:21:41;;;;;;;9.60;6.77;;;12.80;99.90;;;;;;4947997;28;20485;-67
2022/11/16 05:26:51;;;;;;;10.13;7.30;;;12.70;99.90;;;;;;4946769;28;20592;-68
2022/11/16 05:29:17;;;;;;;9.67;8.67;;;12.60;99.90;;;;;;4945998;28;20523;-68
2022/11/16 05:31:42;;;;;;;9.33;8.40;;;12.60;99.90;;;;;;4949256;28;20828;-68
2022/11/16 05:34:08;;;;;;;10.87;8.80;;;12.60;99.90;;;;;;4944209;28;20264;-68
2022/11/16 05:36:34;;;;;;;9.67;8.20;;;12.60;99.90;;;;;;4948981;28;20199;-67
2022/11/16 05:38:59;;;;;;;9.43;8.10;;;12.50;99.90;;;;;;4947365;28;20480;-68
2022/11/16 05:41:25;;;;;;;11.33;8.83;;;12.50;99.90;;;;;;4947168;28;20223;-69
2022/11/16 05:43:50;;;;;;;10.93;9.47;;;12.50;99.90;;;;;;4949303;28;20269;-69
2022/11/16 05:46:16;;;;;;;9.97;8.50;;;12.50;99.90;;;;;;4946239;28;20183;-68
2022/11/16 05:48:42;;;;;;;11.33;9.73;;;12.50;99.90;;;;;;4947145;28;20641;-69
2022/11/16 05:51:07;;;;;;;10.57;9.10;;;12.60;99.90;;;;;;4948008;28;20260;-69
2022/11/16 05:53:33;;;;;;;10.80;8.33;;;12.50;99.90;;;;;;4950287;28;20187;-69
2022/11/16 05:55:58;;;;;;;14.63;9.73;;;12.60;99.90;;;;;;4945901;28;20197;-67
2022/11/16 05:58:24;;;;;;;10.20;8.77;;;12.50;99.90;;;;;;4948009;28;20191;-68
2022/11/16 06:00:50;;;;;;;11.07;8.87;;;12.60;99.90;;;;;;4947899;28;20213;-69
2022/11/16 06:03:15;;;;;;;9.60;8.20;;;12.60;99.90;;;;;;4950019;28;20179;-69
2022/11/16 06:05:41;;;;;;;11.23;8.30;;;12.60;99.90;;;;;;4946499;28;20446;-69
2022/11/16 06:08:07;;;;;;;12.53;9.07;;;12.60;99.90;;;;;;4948691;28;20183;-69
2022/11/16 06:10:33;;;;;;;9.70;8.70;;;12.60;99.90;;;;;;4950916;28;20191;-68
2022/11/16 06:12:58;;;;;;;11.67;8.53;;;12.60;99.90;;;;;;4947177;28;20429;-68
2022/11/16 06:15:24;;;;;;;12.60;9.40;;;12.60;99.90;;;;;;4946643;28;20500;-68
2022/11/16 06:17:49;;;;;;;11.10;9.17;;;12.60;99.90;;;;;;4949533;28;20288;-68
2022/11/16 06:20:16;;;;;;;13.10;9.07;;;12.60;99.90;;;;;;4947224;28;20591;-68
2022/11/16 06:22:41;;;;;;;14.93;9.50;;;12.60;99.90;;;;;;4946254;28;20667;-68
2022/11/16 06:25:07;;;;;;;12.00;9.13;;;12.50;99.90;;;;;;4945366;28;20438;-68
2022/11/16 06:27:33;;;;;;;8.80;7.90;;;12.50;99.90;;;;;;4946256;28;20214;-68
2022/11/16 06:29:59;;;;;;;10.93;8.33;;;12.50;99.90;;;;;;4953465;28;20430;-69
2022/11/16 06:32:25;;;;;;;11.13;8.70;;;12.40;99.90;;;;;;4951206;28;20348;-68
2022/11/16 06:34:51;;;;;;;10.00;8.07;;;12.40;99.90;;;;;;4945185;28;20533;-68
2022/11/16 06:37:17;;;;;;;9.00;7.47;;;12.40;99.90;;;;;;4947510;28;20655;-68
2022/11/16 06:39:43;;;;;;;13.17;8.20;;;12.40;99.90;;;;;;4944016;28;20214;-68
2022/11/16 06:42:09;;;;;;;10.93;8.10;;;12.40;99.90;;;;;;4943415;28;20471;-69
2022/11/16 06:44:35;;;;;;;10.70;8.20;;;12.40;99.90;;;;;;4949654;28;20182;-69
2022/11/16 06:47:01;;;;;;;10.50;8.70;;;12.30;99.90;;;;;;4944249;28;20483;-68
2022/11/16 06:49:26;;;;;;;11.13;8.40;;;12.30;99.90;;;;;;4943699;28;20556;-68
2022/11/16 06:51:52;;;;;;;13.43;7.43;;;12.40;99.90;;;;;;4945741;28;20203;-68
2022/11/16 06:54:17;;;;;;;11.10;8.43;;;12.40;99.90;;;;;;4947428;28;20289;-68
2022/11/16 06:56:43;;;;;;;11.40;7.83;;;12.40;99.90;;;;;;4947267;28;20187;-67
2022/11/16 06:59:09;;;;;;;8.93;7.30;;;12.40;99.90;;;;;;4949487;28;20186;-67
2022/11/16 07:01:35;;;;;;;7.07;5.97;;;12.30;99.90;;;;;;4947780;28;20218;-68
2022/11/16 07:04:00;;;;;;;8.70;6.80;;;12.30;99.90;;;;;;4941356;28;20190;-67
2022/11/16 07:06:26;;;;;;;10.37;7.83;;;12.40;99.90;;;;;;4949579;28;20596;-68
2022/11/16 07:08:52;;;;;;;9.67;6.90;;;12.40;99.90;;;;;;4947129;28;20182;-67
2022/11/16 07:11:19;;;;;;;7.20;6.13;;;12.50;99.90;;;;;;4949401;28;20497;-67
2022/11/16 07:13:45;;;;;;;6.87;5.77;;;12.50;99.90;;;;;;4947995;28;20188;-70
2022/11/16 07:16:11;;;;;;;7.00;6.30;;;12.50;99.90;;;;;;4947202;28;20434;-68
2022/11/16 07:18:39;;;;;;;7.60;6.60;;;12.50;99.90;;;;;;4942424;28;20265;-68
2022/11/16 07:21:10;;;;;;;15.13;5.97;;;12.50;99.90;;;;;;4941485;28;20956;-69
2022/11/16 07:23:36;;;;;;;7.97;5.57;;;12.60;99.90;;;;;;4944253;28;20443;-68
2022/11/16 07:26:03;;;;;;;8.17;6.37;;;12.60;99.90;;;;;;4945207;28;20418;-68
2022/11/16 07:28:28;;;;;;;8.50;6.00;;;12.60;99.90;;;;;;4944841;28;20420;-68
2022/11/16 07:30:59;;;;;;;8.40;6.13;;;12.70;99.90;;;;;;4947084;28;20454;-68
2022/11/16 07:33:25;;;;;;;7.77;5.53;;;12.60;99.90;;;;;;4947279;28;20617;-68
2022/11/16 07:35:51;;;;;;;7.33;6.17;;;12.80;99.90;;;;;;4946944;28;20439;-68
2022/11/16 07:38:16;;;;;;;6.10;5.50;;;12.80;99.90;;;;;;4946436;28;20194;-68
2022/11/16 07:40:44;;;;;;;6.40;4.80;;;12.80;99.90;;;;;;4945081;28;20761;-69
2022/11/16 07:43:10;;;;;;;10.13;5.43;;;12.70;99.90;;;;;;4944561;28;20188;-68
2022/11/16 07:45:36;;;;;;;6.53;4.77;;;12.80;99.90;;;;;;4945394;28;20470;-68
2022/11/16 07:48:01;;;;;;;5.50;4.50;;;12.90;99.90;;;;;;4946755;28;20479;-68
2022/11/16 07:50:27;;;;;;;6.80;4.67;;;12.90;99.90;;;;;;4946041;28;20619;-68
2022/11/16 07:52:54;;;;;;;9.20;5.10;;;12.90;99.90;;;;;;4946665;28;20226;-68
2022/11/16 07:55:20;;;;;;;5.10;4.50;;;12.90;99.90;;;;;;4949393;28;20310;-68
2022/11/16 07:57:45;;;;;;;8.03;4.67;;;12.90;99.90;;;;;;4941959;28;21023;-68
2022/11/16 08:00:11;;;;;;;6.73;4.20;;;12.90;99.90;;;;;;4947452;28;20520;-68
2022/11/16 08:02:37;;;;;;;7.27;4.63;;;13.00;99.90;;;;;;4944424;28;20223;-68
2022/11/16 08:05:03;;;;;;;5.97;4.50;;;13.00;99.90;;;;;;4944986;28;21047;-68
2022/11/16 08:07:28;;;;;;;4.60;4.13;;;13.00;99.90;;;;;;4946684;28;20206;-67
2022/11/16 08:09:54;;;;;;;6.80;4.47;;;13.10;99.90;;;;;;4948126;28;20269;-67
2022/11/16 08:12:19;;;;;;;6.50;4.40;;;13.10;99.90;;;;;;4949227;28;20221;-67
2022/11/16 08:14:45;;;;;;;6.00;3.70;;;13.00;99.90;;;;;;4942025;28;20261;-67
2022/11/16 08:17:11;;;;;;;5.60;4.03;;;13.10;99.90;;;;;;4944613;28;20533;-67
2022/11/16 08:19:39;;;;;;;6.13;3.90;;;13.10;99.90;;;;;;4944303;28;20178;-69
2022/11/16 08:22:04;;;;;;;5.87;4.37;;;13.20;99.90;;;;;;4947367;28;20478;-67
2022/11/16 08:24:30;;;;;;;4.30;3.67;;;13.20;99.90;;;;;;4941487;28;20849;-67
2022/11/16 08:26:57;;;;;;;4.47;3.67;;;13.20;99.90;;;;;;4943122;28;20179;-66
2022/11/16 08:29:23;;;;;;;6.07;3.57;;;13.20;99.90;;;;;;4945995;28;20188;-69
2022/11/16 08:31:49;;;;;;;9.27;3.60;;;13.10;99.90;;;;;;4941685;28;20468;-68
2022/11/16 08:34:15;;;;;;;5.87;3.27;;;13.10;99.90;;;;;;4947157;28;20940;-67
2022/11/16 08:36:41;;;;;;;4.47;3.20;;;13.20;99.90;;;;;;4945597;28;20707;-67
2022/11/16 08:39:06;;;;;;;5.20;3.40;;;13.20;99.90;;;;;;4950032;28;20462;-67
2022/11/16 08:41:34;;;;;;;5.40;3.47;;;13.30;99.90;;;;;;4944861;28;20210;-67
2022/11/16 08:44:00;;;;;;;5.50;4.00;;;13.30;99.90;;;;;;4950365;28;20178;-68
2022/11/16 08:46:26;;;;;;;5.60;3.87;;;13.40;99.90;;;;;;4944229;28;21034;-67
2022/11/16 08:48:56;;;;;;;4.87;3.50;;;13.50;99.90;;;;;;4950562;28;20644;-68
2022/11/16 08:51:23;;;;;;;4.40;4.00;;;13.50;99.90;;;;;;4949835;28;20454;-68
2022/11/16 08:53:53;;;;;;;4.43;3.70;;;13.60;99.90;;;;;;4946559;28;20776;-68
2022/11/16 08:56:19;;;;;;;6.30;4.53;;;13.60;99.90;;;;;;4947293;28;20454;-67
2022/11/16 08:58:48;;;;;;;4.57;3.30;;;13.60;99.90;;;;;;4949048;28;20450;-68
2022/11/16 09:01:19;;;;;;;6.00;3.37;;;13.60;99.90;;;;;;4944695;28;20211;-67
2022/11/16 09:03:45;;;;;;;3.80;3.03;;;13.70;99.90;;;;;;4948491;28;20438;-68
2022/11/16 09:06:12;;;;;;;6.30;3.47;;;13.80;99.90;;;;;;4951246;28;20742;-67
2022/11/16 09:08:39;;;;;;;5.83;3.17;;;13.80;99.90;;;;;;4947441;28;20443;-70
2022/11/16 09:11:07;;;;;;;3.73;3.00;;;13.80;99.90;;;;;;4952608;28;20446;-68
2022/11/16 09:13:33;;;;;;;5.83;2.97;;;13.90;99.90;;;;;;4950794;28;20940;-68
2022/11/16 09:15:59;;;;;;;3.43;2.53;;;13.90;99.90;;;;;;4948335;28;20454;-68
2022/11/16 09:18:26;;;;;;;5.00;2.53;;;13.90;99.90;;;;;;4952790;28;20515;-67
2022/11/16 09:20:52;;;;;;;4.33;2.73;;;14.00;99.90;;;;;;4950768;28;20481;-67
2022/11/16 09:23:18;;;;;;;3.03;2.30;;;14.00;99.90;;;;;;4949545;28;20419;-67
2022/11/16 09:25:47;;;;;;;3.97;2.37;;;14.00;99.90;;;;;;4952018;28;20480;-67
2022/11/16 09:28:17;;;;;;;4.50;1.87;;;14.00;99.90;;;;;;4949122;28;20427;-67
2022/11/16 09:30:47;;;;;;;4.33;2.50;;;14.00;99.90;;;;;;4951055;28;20544;-67
2022/11/16 09:33:13;;;;;;;6.93;2.30;;;14.00;99.90;;;;;;4945939;28;20435;-67
2022/11/16 09:35:39;;;;;;;2.97;2.10;;;14.00;99.90;;;;;;4948420;28;20433;-67
2022/11/16 09:38:05;;;;;;;3.70;2.07;;;14.00;99.90;;;;;;4949041;28;20196;-69
2022/11/16 09:40:34;;;;;;;4.43;2.43;;;14.00;99.90;;;;;;4948907;28;20513;-67
2022/11/16 09:43:42;;;;;;;3.43;2.23;;;14.00;99.90;;;;;;4943198;28;20476;-67
2022/11/16 09:46:25;;;;;;;3.07;1.90;;;14.00;99.90;;;;;;4954246;28;20685;-68
2022/11/16 09:48:55;;;;;;;3.27;2.07;;;14.10;99.90;;;;;;4950733;28;20431;-68
2022/11/16 09:51:22;;;;;;;5.93;2.43;;;14.10;99.90;;;;;;4948981;28;20455;-67
2022/11/16 09:53:57;;;;;;;3.60;2.23;;;14.20;99.90;;;;;;4951250;28;20432;-67
2022/11/16 09:56:25;;;;;;;3.40;2.23;;;14.20;99.90;;;;;;4947863;28;20446;-68
2022/11/16 09:59:08;;;;;;;2.93;2.30;;;14.30;99.90;;;;;;4951107;28;20441;-68
2022/11/16 10:01:58;;;;;;;2.83;2.10;;;14.10;99.90;;;;;;4950300;28;20481;-68
2022/11/16 10:04:37;;;;;;;4.80;2.20;;;14.20;99.90;;;;;;4943883;28;20763;-68
2022/11/16 10:07:16;;;;;;;7.80;2.20;;;14.10;99.90;;;;;;4949309;28;21076;-67
2022/11/16 10:09:43;;;;;;;5.50;2.60;;;14.10;99.90;;;;;;4946320;28;20535;-67
2022/11/16 10:12:37;;;;;;;3.17;2.07;;;14.00;99.90;;;;;;4947912;28;20449;-68
2022/11/16 10:15:27;;;;;;;3.60;1.97;;;14.00;99.90;;;;;;4946321;28;20435;-67
2022/11/16 10:18:07;;;;;;;4.43;2.00;;;14.00;99.90;;;;;;4946743;28;20928;-67
2022/11/16 10:21:04;;;;;;;4.97;2.20;;;13.90;99.90;;;;;;4946150;28;20466;-67
2022/11/16 10:23:39;;;;;;;4.50;2.10;;;14.00;99.90;;;;;;4947295;28;20435;-67
2022/11/16 10:26:26;;;;;;;4.30;1.70;;;13.90;99.90;;;;;;4936263;28;20435;-67
2022/11/16 10:29:04;;;;;;;3.17;1.43;;;13.90;99.90;;;;;;4946968;28;20505;-67
2022/11/16 10:31:41;;;;;;;3.23;1.70;;;13.90;99.90;;;;;;4943212;28;20817;-67
2022/11/16 10:34:15;;;;;;;3.37;1.70;;;14.00;99.90;;;;;;4948946;28;20440;-67
2022/11/16 10:36:40;;;;;;;3.40;2.90;;;14.10;99.90;;;;;;4948685;28;21150;-68
2022/11/16 10:39:15;;;;;;;3.67;1.80;;;14.10;99.90;;;;;;4950325;28;20479;-68
2022/11/16 10:41:48;;;;;;;2.67;1.63;;;14.10;99.90;;;;;;4949819;28;21621;-67
2022/11/16 10:44:18;;;;;;;4.90;1.70;;;14.00;99.90;;;;;;4949825;28;20439;-67
2022/11/16 10:46:59;;;;;;;3.10;1.97;;;14.10;99.90;;;;;;4942433;28;20462;-68
2022/11/16 10:49:36;;;;;;;3.90;1.60;;;14.10;99.90;;;;;;4952484;28;20492;-68
2022/11/16 10:52:02;;;;;;;4.73;1.93;;;14.10;99.90;;;;;;4947059;28;20540;-67
2022/11/16 10:54:28;;;;;;;8.03;2.50;;;14.20;99.90;;;;;;4940280;28;20889;-68
2022/11/16 10:57:05;;;;;;;4.30;1.80;;;14.20;99.90;;;;;;4944968;28;20442;-68
2022/11/16 11:00:00;;;;;;;5.70;1.83;;;14.20;99.90;;;;;;4948971;28;20191;-68
2022/11/16 11:02:29;;;;;;;4.33;1.87;;;14.30;99.90;;;;;;4950035;28;20585;-68
2022/11/16 11:05:02;;;;;;;4.70;1.70;;;14.40;99.90;;;;;;4947021;28;20469;-68
2022/11/16 11:07:36;;;;;;;4.07;1.50;;;14.40;99.90;;;;;;4943054;28;20505;-68
2022/11/16 11:10:03;;;;;;;18.37;6.80;;;14.40;99.90;;;;;;4947992;28;20442;-66
2022/11/16 11:12:37;;;;;;;3.43;1.70;;;14.40;99.90;;;;;;4950419;28;20462;-68
2022/11/16 11:15:25;;;;;;;2.83;2.37;;;14.30;99.90;;;;;;4946290;28;20676;-68
2022/11/16 11:18:24;;;;;;;4.43;1.70;;;14.40;99.90;;;;;;4950516;28;20438;-68
2022/11/16 11:21:18;;;;;;;5.20;2.60;;;14.30;99.90;;;;;;4943749;28;20486;-68
2022/11/16 11:23:54;;;;;;;7.20;2.50;;;14.30;99.90;;;;;;4945060;28;20482;-67
2022/11/16 11:26:26;;;;;;;5.97;1.67;;;14.30;99.90;;;;;;4948730;28;20461;-67
2022/11/16 11:28:52;;;;;;;6.03;1.50;;;14.50;99.90;;;;;;4940756;28;20443;-67
2022/11/16 11:31:47;;;;;;;5.60;2.17;;;14.50;99.90;;;;;;4946740;28;20450;-67
2022/11/16 11:34:20;;;;;;;6.00;1.80;;;14.60;99.90;;;;;;4945137;28;20447;-68
2022/11/16 11:36:59;;;;;;;4.80;1.83;;;14.70;99.90;;;;;;4944942;28;20435;-67
2022/11/16 11:39:33;;;;;;;6.40;1.83;;;14.70;99.90;;;;;;4950218;28;20422;-68
2022/11/16 11:42:13;;;;;;;3.33;1.77;;;14.70;99.90;;;;;;4946984;28;20576;-68
2022/11/16 11:44:59;;;;;;;2.90;1.50;;;14.80;99.90;;;;;;4946824;28;20438;-67
2022/11/16 11:47:48;;;;;;;3.60;1.53;;;14.80;99.90;;;;;;4944131;28;20928;-67
2022/11/16 11:50:20;;;;;;;4.20;1.90;;;14.90;99.90;;;;;;4944580;28;20430;-68
2022/11/16 11:52:53;;;;;;;4.00;1.63;;;15.00;99.90;;;;;;4945262;28;20453;-68
2022/11/16 11:55:19;;;;;;;5.10;1.83;;;15.10;99.90;;;;;;4946844;28;20426;-67
2022/11/16 11:57:47;;;;;;;5.03;1.70;;;15.20;99.90;;;;;;4943065;28;20456;-66
2022/11/16 12:00:14;;;;;;;4.00;1.60;;;15.40;99.90;;;;;;4946756;28;20186;-66
2022/11/16 12:03:04;;;;;;;3.40;2.27;;;15.50;99.90;;;;;;4947934;28;20898;-67
2022/11/16 12:05:48;;;;;;;6.30;2.40;;;15.50;99.90;;;;;;4942230;28;20550;-67
2022/11/16 12:08:41;;;;;;;6.60;1.60;;;15.60;99.90;;;;;;4946138;28;20503;-68
2022/11/16 12:11:26;;;;;;;5.50;1.50;;;15.70;99.90;;;;;;4945716;28;20462;-67
2022/11/16 12:14:10;;;;;;;6.27;1.60;;;15.70;99.90;;;;;;4943269;28;20885;-68
2022/11/16 12:16:56;;;;;;;2.90;1.80;;;15.50;99.90;;;;;;4947029;28;20526;-68
2022/11/16 12:19:56;;;;;;;4.80;1.70;;;15.40;99.90;;;;;;4944264;28;20494;-67
2022/11/16 12:22:46;;;;;;;4.03;2.17;;;15.80;99.90;;;;;;4945606;28;21306;-67
2022/11/16 12:25:31;;;;;;;4.77;1.60;;;16.00;99.90;;;;;;4947285;28;21084;-67
2022/11/16 12:28:20;;;;;;;4.63;1.40;;;16.80;99.90;;;;;;4948037;28;20426;-67
2022/11/16 12:30:57;;;;;;;4.67;1.57;;;17.90;99.90;;;;;;4945771;28;20486;-68
2022/11/16 12:33:46;;;;;;;2.50;1.60;;;18.70;99.90;;;;;;4946892;28;20464;-67
2022/11/16 12:36:26;;;;;;;4.50;1.93;;;19.30;99.90;;;;;;4948208;28;20430;-69
2022/11/16 12:39:10;;;;;;;7.10;2.30;;;19.60;99.90;;;;;;4948073;28;20602;-68
2022/11/16 12:41:47;;;;;;;5.87;2.10;;;20.00;99.90;;;;;;4948419;28;20557;-68
2022/11/16 12:44:31;;;;;;;2.60;1.67;;;20.20;99.90;;;;;;4950983;28;20788;-67
2022/11/16 12:47:40;;;;;;;5.10;1.90;;;20.00;99.90;;;;;;4946807;28;20442;-68
2022/11/16 12:50:26;;;;;;;2.80;1.60;;;19.60;99.90;;;;;;4952775;28;20584;-67
2022/11/16 12:53:24;;;;;;;3.90;1.70;;;19.10;99.90;;;;;;4942002;28;20420;-68
2022/11/16 12:56:02;;;;;;;7.47;2.00;;;18.70;99.90;;;;;;4938642;28;20434;-68
2022/11/16 12:58:41;;;;;;;3.17;1.90;;;18.50;99.90;;;;;;4942554;28;20907;-68
2022/11/16 13:01:29;;;;;;;4.10;2.10;;;18.50;99.90;;;;;;4944525;28;20470;-68
2022/11/16 13:04:00;;;;;;;7.93;1.77;;;18.80;99.90;;;;;;4947707;28;20438;-68
2022/11/16 13:06:32;;;;;;;3.00;1.70;;;19.30;99.90;;;;;;4943350;28;20442;-68
2022/11/16 13:09:14;;;;;;;2.97;2.23;;;19.60;99.90;;;;;;4946681;28;20815;-69
2022/11/16 13:11:53;;;;;;;5.20;2.73;;;19.60;99.90;;;;;;4944023;28;20455;-68
2022/11/16 13:14:38;;;;;;;4.30;2.43;;;19.50;99.90;;;;;;4943472;28;20859;-68
2022/11/16 13:17:05;;;;;;;4.60;1.60;;;19.30;99.90;;;;;;4947841;28;20433;-67
2022/11/16 13:19:31;;;;;;;6.10;1.80;;;19.10;99.90;;;;;;4947477;28;20438;-68
2022/11/16 13:22:22;;;;;;;7.40;1.80;;;18.90;99.90;;;;;;4950751;28;20596;-66
2022/11/16 13:25:14;;;;;;;6.43;2.27;;;18.90;99.90;;;;;;4951308;28;20442;-67
2022/11/16 13:27:43;;;;;;;4.13;2.10;;;18.70;99.90;;;;;;4951000;28;20987;-69
2022/11/16 13:33:16;;;;;;;4.60;1.87;;;18.70;99.90;;;;;;4967410;23;20493;-67
2022/11/16 13:35:41;;;;;;;2.40;1.90;;;18.70;99.90;;;;;;4962366;28;20443;-67
2022/11/16 13:38:12;;;;;;;7.30;2.10;;;18.60;99.90;;;;;;4962973;28;20496;-67
2022/11/16 13:40:38;;;;;;;3.40;2.17;;;18.50;99.90;;;;;;4961522;28;20211;-67
2022/11/16 13:43:09;;;;;;;6.40;1.80;;;18.40;99.90;;;;;;4959741;28;20438;-68
2022/11/16 13:45:58;;;;;;;4.70;2.07;;;18.20;99.90;;;;;;4950501;28;20442;-67
2022/11/16 13:48:26;;;;;;;4.70;2.00;;;18.00;99.90;;;;;;4958665;28;20950;-68
2022/11/16 13:50:58;;;;;;;5.07;1.67;;;17.90;99.90;;;;;;4970264;28;20470;-68